createdAt,value
2022-11-17T00:03:29.775Z,27.58
2022-11-17T00:08:34.263Z,25.95
2022-11-17T00:13:54.825Z,33.13
2022-11-17T00:19:15.081Z,29.85
2022-11-17T00:24:19.350Z,29.52
2022-11-17T00:29:22.291Z,32.55
2022-11-17T00:34:25.027Z,32.55
2022-11-17T00:39:29.219Z,32.95
2022-11-17T00:44:32.733Z,34.05
2022-11-17T00:49:36.682Z,30.13
2022-11-17T00:54:40.922Z,34.35
2022-11-17T00:59:43.655Z,34.58
2022-11-17T01:04:46.435Z,33.33
2022-11-17T01:09:50.565Z,31.15
2022-11-17T01:14:53.341Z,38.20
2022-11-17T01:19:56.106Z,32.55
2022-11-17T01:25:00.228Z,37.67
2022-11-17T01:30:03.351Z,37.88
2022-11-17T01:35:06.964Z,30.08
2022-11-17T01:40:14.151Z,34.08
2022-11-17T01:45:22.010Z,29.92
2022-11-17T01:50:31.263Z,35.92
2022-11-17T01:55:39.313Z,30.92
2022-11-17T02:00:42.552Z,27.27
2022-11-17T02:05:52.854Z,28.92
2022-11-17T02:10:57.727Z,25.17
2022-11-17T02:16:00.491Z,22.75
2022-11-17T02:21:23.903Z,22.20
2022-11-17T02:26:55.941Z,24.40
2022-11-17T02:32:06.171Z,23.87
2022-11-17T02:37:13.915Z,18.15
2022-11-17T02:42:46.572Z,19.75
2022-11-17T02:47:55.283Z,22.70
2022-11-17T02:52:58.098Z,17.42
2022-11-17T02:58:00.893Z,16.52
2022-11-17T03:03:18.096Z,16.55
2022-11-17T03:08:33.223Z,17.25
2022-11-17T03:13:47.237Z,16.33
2022-11-17T03:19:01.873Z,17.10
2022-11-17T03:24:07.802Z,12.73
2022-11-17T03:29:15.992Z,16.23
2022-11-17T03:34:24.734Z,13.70
2022-11-17T03:39:32.584Z,15.73
2022-11-17T03:44:40.115Z,16.30
2022-11-17T03:49:50.451Z,16.27
2022-11-17T03:54:53.979Z,18.35
2022-11-17T04:00:04.559Z,16.95
2022-11-17T04:05:18.951Z,18.17
2022-11-17T04:10:25.614Z,19.65
2022-11-17T04:15:46.609Z,18.30
2022-11-17T04:20:53.345Z,19.67
2022-11-17T04:26:15.075Z,20.17
2022-11-17T04:31:19.921Z,20.13
2022-11-17T04:36:25.920Z,22.08
2022-11-17T04:41:47.888Z,22.08
2022-11-17T04:46:50.880Z,24.00
2022-11-17T04:51:55.337Z,21.60
2022-11-17T04:56:58.539Z,22.23
2022-11-17T05:02:05.899Z,21.20
2022-11-17T05:07:10.726Z,22.70
2022-11-17T05:12:30.895Z,22.58
2022-11-17T05:17:33.621Z,24.30
2022-11-17T05:23:06.377Z,22.92
2022-11-17T05:28:09.595Z,24.85
2022-11-17T05:33:12.372Z,19.08
2022-11-17T05:38:16.463Z,22.30
2022-11-17T05:43:19.199Z,22.48
2022-11-17T05:48:22.039Z,20.73
2022-11-17T05:53:26.333Z,19.95
2022-11-17T05:58:33.457Z,23.42
2022-11-17T06:03:43.118Z,18.92
2022-11-17T06:08:47.572Z,21.63
2022-11-17T06:13:50.347Z,19.95
2022-11-17T06:18:57.083Z,22.88
2022-11-17T06:24:02.251Z,20.83
2022-11-17T06:29:06.296Z,19.50
2022-11-17T06:34:09.847Z,19.55
2022-11-17T06:39:13.989Z,18.33
2022-11-17T06:44:16.739Z,15.23
2022-11-17T06:49:19.975Z,16.73
2022-11-17T06:54:24.129Z,14.30
2022-11-17T06:59:26.977Z,12.85
2022-11-17T07:04:29.785Z,13.07
2022-11-17T07:09:33.950Z,8.25
2022-11-17T07:14:36.801Z,7.72
2022-11-17T07:19:39.625Z,7.22
2022-11-17T07:24:43.795Z,8.10
2022-11-17T07:29:46.611Z,5.88
2022-11-17T07:34:49.697Z,6.15
2022-11-17T07:39:53.873Z,7.15
2022-11-17T07:44:56.662Z,6.78
2022-11-17T07:49:59.489Z,6.35
2022-11-17T07:55:03.662Z,7.45
2022-11-17T08:00:07.449Z,6.85
2022-11-17T08:05:17.309Z,6.53
2022-11-17T08:10:21.687Z,5.00
2022-11-17T08:15:24.890Z,5.72
2022-11-17T08:20:29.220Z,4.50
2022-11-17T08:25:33.457Z,4.70
2022-11-17T08:30:36.339Z,4.95
2022-11-17T08:35:39.179Z,3.72
2022-11-17T08:40:43.712Z,5.25
2022-11-17T08:45:46.575Z,5.75
2022-11-17T08:50:49.826Z,5.10
2022-11-17T08:55:54.073Z,6.43
2022-11-17T09:01:00.941Z,7.88
2022-11-17T09:06:07.208Z,5.43
2022-11-17T09:11:16.573Z,7.28
2022-11-17T09:16:19.655Z,5.82
2022-11-17T09:21:22.551Z,4.75
2022-11-17T09:26:26.852Z,6.63
2022-11-17T09:31:30.077Z,5.03
2022-11-17T09:36:33.354Z,7.00
2022-11-17T09:41:42.867Z,8.23
2022-11-17T09:46:57.113Z,4.85
2022-11-17T09:52:06.507Z,4.68
2022-11-17T09:57:21.524Z,5.90
2022-11-17T10:02:24.662Z,5.85
2022-11-17T10:07:28.814Z,5.00
2022-11-17T10:12:43.385Z,5.65
2022-11-17T10:17:46.169Z,5.68
2022-11-17T10:22:50.924Z,6.28
2022-11-17T10:27:55.184Z,3.67
2022-11-17T10:33:00.095Z,4.53
2022-11-17T10:38:06.813Z,6.35
2022-11-17T10:43:24.505Z,5.70
2022-11-17T10:48:32.263Z,4.82
2022-11-17T10:53:45.072Z,5.32
2022-11-17T10:59:03.575Z,6.75
2022-11-17T11:04:08.444Z,5.32
2022-11-17T11:09:15.113Z,5.85
2022-11-17T11:14:32.106Z,5.32
2022-11-17T11:19:35.393Z,4.90
2022-11-17T11:24:46.262Z,5.57
2022-11-17T11:30:00.147Z,5.47
2022-11-17T11:35:37.486Z,7.65
2022-11-17T11:40:44.507Z,5.00
2022-11-17T11:45:54.602Z,5.20
2022-11-17T11:50:59.484Z,6.80
2022-11-17T11:56:09.890Z,5.03
2022-11-17T12:01:17.134Z,8.70
2022-11-17T12:06:43.899Z,7.43
2022-11-17T12:12:03.694Z,7.15
2022-11-17T12:17:23.210Z,5.47
2022-11-17T12:22:57.486Z,6.35
2022-11-17T12:28:19.245Z,4.55
2022-11-17T12:33:24.078Z,4.43
2022-11-17T12:38:40.865Z,7.22
2022-11-17T12:43:43.697Z,4.80
2022-11-17T12:48:57.181Z,5.43
2022-11-17T12:54:14.540Z,5.32
2022-11-17T12:59:47.680Z,5.32
2022-11-17T13:04:58.660Z,3.45
2022-11-17T13:10:02.678Z,3.22
2022-11-17T13:15:06.776Z,2.85
2022-11-17T13:20:24.240Z,3.75
2022-11-17T13:25:27.133Z,6.30
2022-11-17T13:30:31.090Z,3.92
2022-11-17T13:35:36.994Z,3.42
2022-11-17T13:40:41.544Z,5.18
2022-11-17T13:45:45.763Z,6.25
2022-11-17T13:50:49.942Z,4.18
2022-11-17T13:55:54.168Z,5.47
2022-11-17T14:00:59.169Z,3.53
2022-11-17T14:06:05.386Z,4.38
2022-11-17T14:11:16.320Z,3.60
2022-11-17T14:16:28.760Z,3.50
2022-11-17T14:21:33.733Z,3.70
2022-11-17T14:26:44.465Z,5.47
2022-11-17T14:31:47.274Z,3.50
2022-11-17T14:36:54.625Z,4.70
2022-11-17T14:41:57.892Z,4.25
2022-11-17T14:47:00.682Z,4.88
2022-11-17T14:52:05.209Z,3.95
2022-11-17T14:57:08.054Z,10.43
2022-11-17T15:02:11.307Z,7.03
2022-11-17T15:07:15.437Z,8.75
2022-11-17T15:12:18.512Z,7.03
2022-11-17T15:17:21.329Z,8.20
2022-11-17T15:22:25.466Z,6.25
2022-11-17T15:27:28.304Z,7.65
2022-11-17T15:32:31.097Z,9.30
2022-11-17T15:37:35.207Z,9.63
2022-11-17T15:42:37.987Z,5.90
2022-11-17T15:47:40.750Z,6.88
2022-11-17T15:58:07.673Z,25.85
2022-11-17T16:03:10.470Z,6.78
2022-11-17T16:08:14.653Z,5.68
2022-11-17T16:13:17.505Z,10.25
2022-11-17T16:18:20.557Z,19.63
2022-11-17T16:23:24.752Z,15.15
2022-11-17T16:28:27.537Z,6.90
2022-11-17T16:33:30.298Z,22.98
2022-11-17T16:38:34.499Z,22.65
2022-11-17T16:43:44.278Z,8.35
2022-11-17T16:48:48.625Z,10.30
2022-11-17T16:53:58.584Z,12.88
2022-11-17T16:59:01.685Z,20.50
2022-11-17T17:04:06.986Z,8.68
2022-11-17T17:09:13.105Z,11.52
2022-11-17T17:14:16.701Z,7.57
2022-11-17T17:19:19.755Z,10.10
2022-11-17T17:24:24.114Z,8.63
2022-11-17T17:29:26.979Z,9.73
2022-11-17T17:34:29.867Z,9.93
2022-11-17T17:39:34.368Z,8.55
2022-11-17T17:44:37.253Z,8.05
2022-11-17T17:49:40.088Z,9.98
2022-11-17T17:54:44.184Z,9.77
2022-11-17T17:59:47.010Z,11.13
2022-11-17T18:04:49.764Z,10.63
2022-11-17T18:09:53.896Z,24.00
2022-11-17T18:14:56.813Z,24.90
2022-11-17T18:19:59.633Z,26.67
2022-11-17T18:25:07.575Z,16.27
2022-11-17T18:30:11.425Z,14.32
2022-11-17T18:35:14.256Z,21.23
2022-11-17T18:40:18.411Z,12.57
2022-11-17T18:45:21.165Z,14.02
2022-11-17T18:50:23.985Z,17.40
2022-11-17T18:55:28.213Z,13.00
2022-11-17T19:00:30.993Z,13.68
2022-11-17T19:05:35.165Z,16.35
2022-11-17T19:10:39.440Z,14.32
2022-11-17T19:15:42.225Z,16.17
2022-11-17T19:20:45.238Z,15.30
2022-11-17T19:25:49.308Z,25.20
2022-11-17T19:30:52.030Z,31.65
2022-11-17T19:35:54.772Z,31.45
2022-11-17T19:41:02.641Z,19.17
2022-11-17T19:46:07.813Z,14.00
2022-11-17T19:51:16.757Z,14.80
2022-11-17T19:56:21.876Z,15.02
2022-11-17T20:01:26.834Z,17.40
2022-11-17T20:06:32.974Z,15.45
2022-11-17T20:11:37.633Z,15.40
2022-11-17T20:16:40.437Z,20.38
2022-11-17T20:21:43.234Z,16.63
2022-11-17T20:26:47.416Z,18.20
2022-11-17T20:31:50.213Z,20.58
2022-11-17T20:36:53.020Z,17.25
2022-11-17T20:41:57.098Z,21.67
2022-11-17T20:46:59.908Z,15.15
2022-11-17T20:52:02.782Z,16.83
2022-11-17T20:57:06.929Z,16.67
2022-11-17T21:02:10.406Z,17.83
2022-11-17T21:07:13.194Z,17.85
2022-11-17T21:12:17.459Z,15.60
2022-11-17T21:17:37.785Z,19.35
2022-11-17T21:22:40.661Z,22.65
2022-11-17T21:27:44.773Z,18.45
2022-11-17T21:32:47.694Z,18.25
2022-11-17T21:37:50.446Z,18.60
2022-11-17T21:42:54.501Z,19.02
2022-11-17T21:47:59.497Z,21.35
2022-11-17T21:53:02.613Z,23.33
2022-11-17T21:58:06.740Z,22.10
2022-11-17T22:03:09.455Z,19.73
2022-11-17T22:08:12.264Z,18.27
2022-11-17T22:13:16.385Z,19.25
2022-11-17T22:18:19.136Z,25.70
2022-11-17T22:23:21.836Z,20.85
2022-11-17T22:28:26.465Z,19.73
2022-11-17T22:33:29.224Z,20.38
2022-11-17T22:38:32.192Z,22.13
2022-11-17T22:43:36.511Z,19.23
2022-11-17T22:48:39.487Z,19.48
2022-11-17T22:53:42.296Z,20.98
2022-11-17T22:58:50.009Z,23.75
2022-11-17T23:03:52.927Z,25.38
2022-11-17T23:08:56.235Z,25.80
2022-11-17T23:14:00.899Z,21.60
2022-11-17T23:19:03.725Z,28.23
2022-11-17T23:24:09.369Z,24.30
2022-11-17T23:29:13.832Z,23.02
2022-11-17T23:34:17.095Z,21.67
2022-11-17T23:39:20.037Z,22.67
2022-11-17T23:44:24.143Z,23.77
2022-11-17T23:49:26.861Z,24.27
2022-11-17T23:54:29.674Z,22.48
2022-11-17T23:59:33.981Z,26.52
